sensor_id;sensor_type;location;lat;lon;timestamp;P1;durP1;ratioP1;P2;durP2;ratioP2
8421;SDS011;4248;48.196;10.924;2023-04-28T00:00:29;9.40;;;5.20;;
8421;SDS011;4248;48.196;10.924;2023-04-28T00:02:55;9.40;;;5.33;;
8421;SDS011;4248;48.196;10.924;2023-04-28T00:05:20;9.87;;;5.90;;
8421;SDS011;4248;48.196;10.924;2023-04-28T00:07:47;8.80;;;5.17;;
8421;SDS011;4248;48.196;10.924;2023-04-28T00:10:13;9.30;;;5.60;;
8421;SDS011;4248;48.196;10.924;2023-04-28T00:12:38;8.43;;;5.60;;
8421;SDS011;4248;48.196;10.924;2023-04-28T00:15:04;7.80;;;4.97;;
8421;SDS011;4248;48.196;10.924;2023-04-28T00:17:30;8.57;;;4.93;;
8421;SDS011;4248;48.196;10.924;2023-04-28T00:19:55;6.70;;;5.00;;
8421;SDS011;4248;48.196;10.924;2023-04-28T00:22:21;7.27;;;4.73;;
8421;SDS011;4248;48.196;10.924;2023-04-28T00:24:47;7.40;;;4.93;;
8421;SDS011;4248;48.196;10.924;2023-04-28T00:27:12;7.30;;;4.80;;
8421;SDS011;4248;48.196;10.924;2023-04-28T00:29:38;7.60;;;4.73;;
8421;SDS011;4248;48.196;10.924;2023-04-28T00:32:04;6.93;;;4.47;;
8421;SDS011;4248;48.196;10.924;2023-04-28T00:34:32;7.73;;;4.40;;
8421;SDS011;4248;48.196;10.924;2023-04-28T00:37:01;6.63;;;4.33;;
8421;SDS011;4248;48.196;10.924;2023-04-28T00:39:27;9.00;;;4.63;;
8421;SDS011;4248;48.196;10.924;2023-04-28T00:41:53;8.07;;;4.50;;
8421;SDS011;4248;48.196;10.924;2023-04-28T00:44:18;9.00;;;5.27;;
8421;SDS011;4248;48.196;10.924;2023-04-28T00:46:45;6.97;;;4.43;;
8421;SDS011;4248;48.196;10.924;2023-04-28T00:49:11;6.60;;;4.87;;
8421;SDS011;4248;48.196;10.924;2023-04-28T00:51:38;8.50;;;5.43;;
8421;SDS011;4248;48.196;10.924;2023-04-28T00:54:04;6.90;;;4.90;;
8421;SDS011;4248;48.196;10.924;2023-04-28T00:56:31;8.63;;;5.00;;
8421;SDS011;4248;48.196;10.924;2023-04-28T00:58:57;8.40;;;4.47;;
8421;SDS011;4248;48.196;10.924;2023-04-28T01:01:23;6.90;;;4.97;;
8421;SDS011;4248;48.196;10.924;2023-04-28T01:03:49;8.57;;;5.20;;
8421;SDS011;4248;48.196;10.924;2023-04-28T01:06:16;17.23;;;4.57;;
8421;SDS011;4248;48.196;10.924;2023-04-28T01:08:42;6.53;;;4.67;;
8421;SDS011;4248;48.196;10.924;2023-04-28T01:11:12;6.93;;;4.67;;
8421;SDS011;4248;48.196;10.924;2023-04-28T01:13:38;6.60;;;4.63;;
8421;SDS011;4248;48.196;10.924;2023-04-28T01:16:05;6.77;;;4.30;;
8421;SDS011;4248;48.196;10.924;2023-04-28T01:18:31;5.70;;;4.03;;
8421;SDS011;4248;48.196;10.924;2023-04-28T01:20:57;8.67;;;4.27;;
8421;SDS011;4248;48.196;10.924;2023-04-28T01:23:22;9.47;;;4.10;;
8421;SDS011;4248;48.196;10.924;2023-04-28T01:25:48;9.97;;;4.30;;
8421;SDS011;4248;48.196;10.924;2023-04-28T01:28:14;6.60;;;3.60;;
8421;SDS011;4248;48.196;10.924;2023-04-28T01:30:40;7.40;;;4.00;;
8421;SDS011;4248;48.196;10.924;2023-04-28T01:33:05;6.50;;;4.00;;
8421;SDS011;4248;48.196;10.924;2023-04-28T01:35:31;6.10;;;4.17;;
8421;SDS011;4248;48.196;10.924;2023-04-28T01:37:57;5.90;;;4.30;;
8421;SDS011;4248;48.196;10.924;2023-04-28T01:40:22;6.87;;;4.83;;
8421;SDS011;4248;48.196;10.924;2023-04-28T01:42:48;7.40;;;4.60;;
8421;SDS011;4248;48.196;10.924;2023-04-28T01:45:15;7.83;;;4.60;;
8421;SDS011;4248;48.196;10.924;2023-04-28T01:47:40;9.17;;;4.50;;
8421;SDS011;4248;48.196;10.924;2023-04-28T01:50:06;7.37;;;3.83;;
8421;SDS011;4248;48.196;10.924;2023-04-28T01:52:32;5.90;;;4.50;;
8421;SDS011;4248;48.196;10.924;2023-04-28T01:54:57;7.53;;;4.57;;
8421;SDS011;4248;48.196;10.924;2023-04-28T01:57:23;5.80;;;4.10;;
8421;SDS011;4248;48.196;10.924;2023-04-28T01:59:49;7.97;;;3.40;;
8421;SDS011;4248;48.196;10.924;2023-04-28T02:02:15;5.80;;;3.70;;
8421;SDS011;4248;48.196;10.924;2023-04-28T02:04:40;6.80;;;3.63;;
8421;SDS011;4248;48.196;10.924;2023-04-28T02:07:06;5.80;;;3.87;;
8421;SDS011;4248;48.196;10.924;2023-04-28T02:09:32;6.50;;;4.20;;
8421;SDS011;4248;48.196;10.924;2023-04-28T02:11:58;5.13;;;3.87;;
8421;SDS011;4248;48.196;10.924;2023-04-28T02:14:26;5.80;;;4.10;;
8421;SDS011;4248;48.196;10.924;2023-04-28T02:16:52;4.60;;;3.50;;
8421;SDS011;4248;48.196;10.924;2023-04-28T02:19:18;6.10;;;4.13;;
8421;SDS011;4248;48.196;10.924;2023-04-28T02:21:43;6.33;;;3.70;;
8421;SDS011;4248;48.196;10.924;2023-04-28T02:24:09;7.13;;;4.50;;
8421;SDS011;4248;48.196;10.924;2023-04-28T02:26:34;9.23;;;3.70;;
8421;SDS011;4248;48.196;10.924;2023-04-28T02:29:00;5.10;;;3.67;;
8421;SDS011;4248;48.196;10.924;2023-04-28T02:31:28;4.93;;;3.77;;
8421;SDS011;4248;48.196;10.924;2023-04-28T02:33:53;4.57;;;3.30;;
8421;SDS011;4248;48.196;10.924;2023-04-28T02:36:20;4.60;;;3.60;;
8421;SDS011;4248;48.196;10.924;2023-04-28T02:38:45;9.77;;;3.73;;
8421;SDS011;4248;48.196;10.924;2023-04-28T02:41:11;8.20;;;4.37;;
8421;SDS011;4248;48.196;10.924;2023-04-28T02:43:39;5.57;;;3.23;;
8421;SDS011;4248;48.196;10.924;2023-04-28T02:46:05;9.90;;;3.67;;
8421;SDS011;4248;48.196;10.924;2023-04-28T02:48:31;5.50;;;3.57;;
8421;SDS011;4248;48.196;10.924;2023-04-28T02:50:59;4.60;;;3.40;;
8421;SDS011;4248;48.196;10.924;2023-04-28T02:53:25;4.43;;;2.90;;
8421;SDS011;4248;48.196;10.924;2023-04-28T02:55:51;7.23;;;4.10;;
8421;SDS011;4248;48.196;10.924;2023-04-28T02:58:16;7.63;;;4.33;;
8421;SDS011;4248;48.196;10.924;2023-04-28T03:00:42;6.20;;;3.00;;
8421;SDS011;4248;48.196;10.924;2023-04-28T03:03:08;11.93;;;3.83;;
8421;SDS011;4248;48.196;10.924;2023-04-28T03:05:33;15.70;;;8.47;;
8421;SDS011;4248;48.196;10.924;2023-04-28T03:07:59;11.43;;;6.60;;
8421;SDS011;4248;48.196;10.924;2023-04-28T03:10:25;8.10;;;4.80;;
8421;SDS011;4248;48.196;10.924;2023-04-28T03:12:51;7.57;;;4.70;;
8421;SDS011;4248;48.196;10.924;2023-04-28T03:15:16;9.20;;;4.30;;
8421;SDS011;4248;48.196;10.924;2023-04-28T03:17:42;6.60;;;3.53;;
8421;SDS011;4248;48.196;10.924;2023-04-28T03:20:08;7.60;;;3.43;;
8421;SDS011;4248;48.196;10.924;2023-04-28T03:22:34;3.90;;;2.83;;
8421;SDS011;4248;48.196;10.924;2023-04-28T03:25:00;4.37;;;2.60;;
8421;SDS011;4248;48.196;10.924;2023-04-28T03:27:26;4.27;;;2.90;;
8421;SDS011;4248;48.196;10.924;2023-04-28T03:29:52;6.27;;;2.73;;
8421;SDS011;4248;48.196;10.924;2023-04-28T03:32:18;4.20;;;3.10;;
8421;SDS011;4248;48.196;10.924;2023-04-28T03:34:44;3.90;;;2.73;;
8421;SDS011;4248;48.196;10.924;2023-04-28T03:37:09;4.90;;;2.87;;
8421;SDS011;4248;48.196;10.924;2023-04-28T03:39:35;5.00;;;3.10;;
8421;SDS011;4248;48.196;10.924;2023-04-28T03:42:00;14.53;;;6.20;;
8421;SDS011;4248;48.196;10.924;2023-04-28T03:44:26;6.33;;;4.10;;
8421;SDS011;4248;48.196;10.924;2023-04-28T03:46:52;8.53;;;4.73;;
8421;SDS011;4248;48.196;10.924;2023-04-28T03:49:17;17.03;;;8.83;;
8421;SDS011;4248;48.196;10.924;2023-04-28T03:51:43;11.53;;;6.43;;
8421;SDS011;4248;48.196;10.924;2023-04-28T03:54:08;6.20;;;3.90;;
8421;SDS011;4248;48.196;10.924;2023-04-28T03:56:34;8.83;;;5.27;;
8421;SDS011;4248;48.196;10.924;2023-04-28T03:59:00;17.93;;;8.30;;
8421;SDS011;4248;48.196;10.924;2023-04-28T04:01:25;6.70;;;4.40;;
8421;SDS011;4248;48.196;10.924;2023-04-28T04:03:51;10.63;;;5.07;;
8421;SDS011;4248;48.196;10.924;2023-04-28T04:06:17;7.13;;;4.37;;
8421;SDS011;4248;48.196;10.924;2023-04-28T04:08:43;6.17;;;3.37;;
8421;SDS011;4248;48.196;10.924;2023-04-28T04:11:09;5.43;;;3.70;;
8421;SDS011;4248;48.196;10.924;2023-04-28T04:13:35;5.47;;;3.00;;
8421;SDS011;4248;48.196;10.924;2023-04-28T04:16:01;5.00;;;2.80;;
8421;SDS011;4248;48.196;10.924;2023-04-28T04:18:26;7.20;;;3.00;;
8421;SDS011;4248;48.196;10.924;2023-04-28T04:20:52;5.70;;;3.10;;
8421;SDS011;4248;48.196;10.924;2023-04-28T04:23:20;4.47;;;3.07;;
8421;SDS011;4248;48.196;10.924;2023-04-28T04:25:46;5.77;;;3.00;;
8421;SDS011;4248;48.196;10.924;2023-04-28T04:28:11;4.50;;;3.00;;
8421;SDS011;4248;48.196;10.924;2023-04-28T04:30:37;3.77;;;2.70;;
8421;SDS011;4248;48.196;10.924;2023-04-28T04:33:03;4.63;;;3.27;;
8421;SDS011;4248;48.196;10.924;2023-04-28T04:35:28;4.43;;;3.60;;
8421;SDS011;4248;48.196;10.924;2023-04-28T04:37:54;4.97;;;3.30;;
8421;SDS011;4248;48.196;10.924;2023-04-28T04:40:20;4.97;;;2.87;;
8421;SDS011;4248;48.196;10.924;2023-04-28T04:42:46;5.10;;;2.80;;
8421;SDS011;4248;48.196;10.924;2023-04-28T04:45:11;3.50;;;2.50;;
8421;SDS011;4248;48.196;10.924;2023-04-28T04:47:37;8.03;;;2.90;;
8421;SDS011;4248;48.196;10.924;2023-04-28T04:50:03;4.60;;;2.70;;
8421;SDS011;4248;48.196;10.924;2023-04-28T04:52:29;4.43;;;2.67;;
8421;SDS011;4248;48.196;10.924;2023-04-28T04:54:54;4.90;;;2.30;;
8421;SDS011;4248;48.196;10.924;2023-04-28T04:57:20;5.53;;;2.97;;
8421;SDS011;4248;48.196;10.924;2023-04-28T04:59:46;4.80;;;2.67;;
8421;SDS011;4248;48.196;10.924;2023-04-28T05:02:12;3.43;;;2.57;;
8421;SDS011;4248;48.196;10.924;2023-04-28T05:04:37;4.03;;;2.87;;
8421;SDS011;4248;48.196;10.924;2023-04-28T05:07:03;6.23;;;2.77;;
8421;SDS011;4248;48.196;10.924;2023-04-28T05:09:29;4.93;;;2.87;;
8421;SDS011;4248;48.196;10.924;2023-04-28T05:11:56;5.30;;;2.90;;
8421;SDS011;4248;48.196;10.924;2023-04-28T05:14:21;3.47;;;2.80;;
8421;SDS011;4248;48.196;10.924;2023-04-28T05:16:47;6.90;;;2.70;;
8421;SDS011;4248;48.196;10.924;2023-04-28T05:19:13;7.57;;;3.57;;
8421;SDS011;4248;48.196;10.924;2023-04-28T05:21:39;4.50;;;3.30;;
8421;SDS011;4248;48.196;10.924;2023-04-28T05:24:04;6.97;;;3.93;;
8421;SDS011;4248;48.196;10.924;2023-04-28T05:26:30;6.90;;;3.93;;
8421;SDS011;4248;48.196;10.924;2023-04-28T05:28:56;6.73;;;3.87;;
8421;SDS011;4248;48.196;10.924;2023-04-28T05:31:21;6.80;;;3.73;;
8421;SDS011;4248;48.196;10.924;2023-04-28T05:33:47;7.37;;;3.50;;
8421;SDS011;4248;48.196;10.924;2023-04-28T05:36:12;5.37;;;3.30;;
8421;SDS011;4248;48.196;10.924;2023-04-28T05:38:40;7.47;;;3.60;;
8421;SDS011;4248;48.196;10.924;2023-04-28T05:41:07;5.93;;;3.63;;
8421;SDS011;4248;48.196;10.924;2023-04-28T05:43:32;5.70;;;3.20;;
8421;SDS011;4248;48.196;10.924;2023-04-28T05:45:58;4.63;;;2.90;;
8421;SDS011;4248;48.196;10.924;2023-04-28T05:48:24;4.80;;;2.73;;
8421;SDS011;4248;48.196;10.924;2023-04-28T05:50:50;10.37;;;2.97;;
8421;SDS011;4248;48.196;10.924;2023-04-28T05:53:16;6.90;;;3.30;;
8421;SDS011;4248;48.196;10.924;2023-04-28T05:55:41;4.27;;;2.53;;
8421;SDS011;4248;48.196;10.924;2023-04-28T05:58:07;9.10;;;3.37;;
8421;SDS011;4248;48.196;10.924;2023-04-28T06:00:33;5.00;;;2.93;;
8421;SDS011;4248;48.196;10.924;2023-04-28T06:02:59;5.73;;;2.93;;
8421;SDS011;4248;48.196;10.924;2023-04-28T06:05:24;5.50;;;3.00;;
8421;SDS011;4248;48.196;10.924;2023-04-28T06:07:50;3.53;;;2.63;;
8421;SDS011;4248;48.196;10.924;2023-04-28T06:10:16;4.23;;;2.70;;
8421;SDS011;4248;48.196;10.924;2023-04-28T06:12:42;4.70;;;3.00;;
8421;SDS011;4248;48.196;10.924;2023-04-28T06:15:08;4.73;;;3.00;;
8421;SDS011;4248;48.196;10.924;2023-04-28T06:17:34;4.30;;;3.10;;
8421;SDS011;4248;48.196;10.924;2023-04-28T06:19:59;5.60;;;3.47;;
8421;SDS011;4248;48.196;10.924;2023-04-28T06:22:25;4.50;;;2.30;;
8421;SDS011;4248;48.196;10.924;2023-04-28T06:24:51;5.77;;;2.90;;
8421;SDS011;4248;48.196;10.924;2023-04-28T06:27:16;5.90;;;4.33;;
8421;SDS011;4248;48.196;10.924;2023-04-28T06:29:43;11.00;;;6.67;;
8421;SDS011;4248;48.196;10.924;2023-04-28T06:32:09;6.50;;;3.90;;
8421;SDS011;4248;48.196;10.924;2023-04-28T06:34:35;11.93;;;6.17;;
8421;SDS011;4248;48.196;10.924;2023-04-28T06:37:01;6.60;;;4.77;;
8421;SDS011;4248;48.196;10.924;2023-04-28T06:39:27;4.80;;;3.03;;
8421;SDS011;4248;48.196;10.924;2023-04-28T06:41:53;4.00;;;2.30;;
8421;SDS011;4248;48.196;10.924;2023-04-28T06:44:18;4.23;;;1.93;;
8421;SDS011;4248;48.196;10.924;2023-04-28T06:46:44;2.87;;;1.57;;
8421;SDS011;4248;48.196;10.924;2023-04-28T06:49:10;2.50;;;1.40;;
8421;SDS011;4248;48.196;10.924;2023-04-28T06:51:35;2.60;;;1.50;;
8421;SDS011;4248;48.196;10.924;2023-04-28T06:54:01;2.30;;;1.30;;
8421;SDS011;4248;48.196;10.924;2023-04-28T06:56:27;2.20;;;1.13;;
8421;SDS011;4248;48.196;10.924;2023-04-28T06:58:53;3.40;;;1.10;;
8421;SDS011;4248;48.196;10.924;2023-04-28T07:01:20;2.87;;;1.20;;
8421;SDS011;4248;48.196;10.924;2023-04-28T07:03:46;3.27;;;1.37;;
8421;SDS011;4248;48.196;10.924;2023-04-28T07:06:12;3.50;;;1.53;;
8421;SDS011;4248;48.196;10.924;2023-04-28T07:08:38;9.83;;;2.57;;
8421;SDS011;4248;48.196;10.924;2023-04-28T07:11:03;2.83;;;1.57;;
8421;SDS011;4248;48.196;10.924;2023-04-28T07:13:30;2.90;;;1.60;;
8421;SDS011;4248;48.196;10.924;2023-04-28T07:15:56;2.60;;;1.50;;
8421;SDS011;4248;48.196;10.924;2023-04-28T07:18:22;2.47;;;1.40;;
8421;SDS011;4248;48.196;10.924;2023-04-28T07:20:48;5.10;;;1.20;;
8421;SDS011;4248;48.196;10.924;2023-04-28T07:23:13;5.40;;;1.37;;
8421;SDS011;4248;48.196;10.924;2023-04-28T07:25:39;3.17;;;1.40;;
8421;SDS011;4248;48.196;10.924;2023-04-28T07:28:05;4.60;;;1.30;;
8421;SDS011;4248;48.196;10.924;2023-04-28T07:30:31;2.13;;;1.20;;
8421;SDS011;4248;48.196;10.924;2023-04-28T07:32:58;5.20;;;2.00;;
8421;SDS011;4248;48.196;10.924;2023-04-28T07:35:24;4.80;;;2.63;;
8421;SDS011;4248;48.196;10.924;2023-04-28T07:37:50;3.47;;;1.93;;
8421;SDS011;4248;48.196;10.924;2023-04-28T07:40:15;2.10;;;1.30;;
8421;SDS011;4248;48.196;10.924;2023-04-28T07:42:42;3.30;;;1.50;;
8421;SDS011;4248;48.196;10.924;2023-04-28T07:45:07;2.20;;;1.20;;
8421;SDS011;4248;48.196;10.924;2023-04-28T07:47:34;2.97;;;1.80;;
8421;SDS011;4248;48.196;10.924;2023-04-28T07:50:00;7.90;;;4.80;;
8421;SDS011;4248;48.196;10.924;2023-04-28T07:52:31;7.73;;;4.70;;
8421;SDS011;4248;48.196;10.924;2023-04-28T07:54:57;4.40;;;2.33;;
8421;SDS011;4248;48.196;10.924;2023-04-28T07:57:23;8.97;;;3.07;;
8421;SDS011;4248;48.196;10.924;2023-04-28T07:59:49;5.30;;;2.30;;
8421;SDS011;4248;48.196;10.924;2023-04-28T08:02:15;3.20;;;1.80;;
8421;SDS011;4248;48.196;10.924;2023-04-28T08:04:41;6.80;;;3.47;;
8421;SDS011;4248;48.196;10.924;2023-04-28T08:07:07;2.80;;;1.80;;
8421;SDS011;4248;48.196;10.924;2023-04-28T08:09:33;4.57;;;2.23;;
8421;SDS011;4248;48.196;10.924;2023-04-28T08:11:59;7.03;;;2.07;;
8421;SDS011;4248;48.196;10.924;2023-04-28T08:14:25;3.70;;;1.80;;
8421;SDS011;4248;48.196;10.924;2023-04-28T08:16:51;3.50;;;1.90;;
8421;SDS011;4248;48.196;10.924;2023-04-28T08:19:17;2.60;;;1.40;;
8421;SDS011;4248;48.196;10.924;2023-04-28T08:21:43;3.50;;;1.70;;
8421;SDS011;4248;48.196;10.924;2023-04-28T08:24:09;3.40;;;1.60;;
8421;SDS011;4248;48.196;10.924;2023-04-28T08:26:35;3.40;;;2.10;;
8421;SDS011;4248;48.196;10.924;2023-04-28T08:29:02;3.10;;;1.83;;
8421;SDS011;4248;48.196;10.924;2023-04-28T08:31:27;2.20;;;1.30;;
8421;SDS011;4248;48.196;10.924;2023-04-28T08:33:53;4.20;;;1.50;;
8421;SDS011;4248;48.196;10.924;2023-04-28T08:36:19;3.43;;;1.70;;
8421;SDS011;4248;48.196;10.924;2023-04-28T08:38:45;3.47;;;1.70;;
8421;SDS011;4248;48.196;10.924;2023-04-28T08:41:14;2.50;;;1.20;;
8421;SDS011;4248;48.196;10.924;2023-04-28T08:43:40;2.73;;;1.10;;
8421;SDS011;4248;48.196;10.924;2023-04-28T08:46:07;3.20;;;1.33;;
8421;SDS011;4248;48.196;10.924;2023-04-28T08:48:38;2.20;;;1.10;;
8421;SDS011;4248;48.196;10.924;2023-04-28T08:51:05;2.53;;;1.20;;
8421;SDS011;4248;48.196;10.924;2023-04-28T08:53:31;2.23;;;1.20;;
8421;SDS011;4248;48.196;10.924;2023-04-28T08:56:03;3.63;;;1.30;;
8421;SDS011;4248;48.196;10.924;2023-04-28T08:58:31;3.07;;;1.27;;
8421;SDS011;4248;48.196;10.924;2023-04-28T09:00:59;4.23;;;1.47;;
8421;SDS011;4248;48.196;10.924;2023-04-28T09:03:27;2.87;;;1.30;;
8421;SDS011;4248;48.196;10.924;2023-04-28T09:05:52;5.00;;;1.53;;
8421;SDS011;4248;48.196;10.924;2023-04-28T09:08:18;3.00;;;1.40;;
8421;SDS011;4248;48.196;10.924;2023-04-28T09:10:44;3.10;;;1.70;;
8421;SDS011;4248;48.196;10.924;2023-04-28T09:13:09;5.73;;;3.07;;
8421;SDS011;4248;48.196;10.924;2023-04-28T09:15:49;6.13;;;5.37;;
8421;SDS011;4248;48.196;10.924;2023-04-28T09:18:15;3.10;;;2.43;;
8421;SDS011;4248;48.196;10.924;2023-04-28T09:20:41;4.60;;;1.60;;
8421;SDS011;4248;48.196;10.924;2023-04-28T09:25:38;6.53;;;2.20;;
8421;SDS011;4248;48.196;10.924;2023-04-28T09:28:22;4.37;;;2.10;;
8421;SDS011;4248;48.196;10.924;2023-04-28T09:30:48;6.00;;;1.40;;
8421;SDS011;4248;48.196;10.924;2023-04-28T09:33:13;3.70;;;1.77;;
8421;SDS011;4248;48.196;10.924;2023-04-28T09:35:40;2.93;;;1.60;;
8421;SDS011;4248;48.196;10.924;2023-04-28T09:38:07;2.73;;;1.33;;
8421;SDS011;4248;48.196;10.924;2023-04-28T09:40:35;4.03;;;1.60;;
8421;SDS011;4248;48.196;10.924;2023-04-28T09:43:23;3.23;;;1.90;;
8421;SDS011;4248;48.196;10.924;2023-04-28T09:45:54;2.47;;;1.27;;
8421;SDS011;4248;48.196;10.924;2023-04-28T09:48:26;5.27;;;1.60;;
8421;SDS011;4248;48.196;10.924;2023-04-28T09:50:52;3.20;;;1.63;;
8421;SDS011;4248;48.196;10.924;2023-04-28T09:53:23;2.03;;;1.30;;
8421;SDS011;4248;48.196;10.924;2023-04-28T09:55:50;3.67;;;1.80;;
8421;SDS011;4248;48.196;10.924;2023-04-28T09:58:20;2.83;;;1.60;;
8421;SDS011;4248;48.196;10.924;2023-04-28T10:00:54;3.17;;;1.63;;
8421;SDS011;4248;48.196;10.924;2023-04-28T10:03:21;5.00;;;1.40;;
8421;SDS011;4248;48.196;10.924;2023-04-28T10:05:49;2.50;;;1.30;;
8421;SDS011;4248;48.196;10.924;2023-04-28T10:08:17;2.67;;;1.20;;
8421;SDS011;4248;48.196;10.924;2023-04-28T10:10:50;6.20;;;3.43;;
8421;SDS011;4248;48.196;10.924;2023-04-28T10:13:19;10.33;;;6.47;;
8421;SDS011;4248;48.196;10.924;2023-04-28T10:15:46;7.33;;;1.93;;
8421;SDS011;4248;48.196;10.924;2023-04-28T10:18:12;3.00;;;2.10;;
8421;SDS011;4248;48.196;10.924;2023-04-28T10:20:40;3.30;;;1.97;;
8421;SDS011;4248;48.196;10.924;2023-04-28T10:25:49;4.50;;;1.90;;
8421;SDS011;4248;48.196;10.924;2023-04-28T10:28:21;7.23;;;1.73;;
8421;SDS011;4248;48.196;10.924;2023-04-28T10:33:35;2.87;;;1.87;;
8421;SDS011;4248;48.196;10.924;2023-04-28T10:36:02;3.50;;;1.70;;
8421;SDS011;4248;48.196;10.924;2023-04-28T10:38:28;6.97;;;1.80;;
8421;SDS011;4248;48.196;10.924;2023-04-28T10:40:54;4.20;;;3.17;;
8421;SDS011;4248;48.196;10.924;2023-04-28T10:58:42;2.40;;;1.33;;
8421;SDS011;4248;48.196;10.924;2023-04-28T11:03:53;4.23;;;1.73;;
8421;SDS011;4248;48.196;10.924;2023-04-28T11:06:32;3.40;;;1.23;;
8421;SDS011;4248;48.196;10.924;2023-04-28T11:11:30;3.10;;;1.80;;
8421;SDS011;4248;48.196;10.924;2023-04-28T11:16:47;5.13;;;1.93;;
8421;SDS011;4248;48.196;10.924;2023-04-28T11:19:14;2.37;;;1.57;;
8421;SDS011;4248;48.196;10.924;2023-04-28T11:21:43;4.07;;;1.73;;
8421;SDS011;4248;48.196;10.924;2023-04-28T11:24:10;3.27;;;1.73;;
8421;SDS011;4248;48.196;10.924;2023-04-28T11:26:36;2.50;;;1.50;;
8421;SDS011;4248;48.196;10.924;2023-04-28T11:29:03;3.77;;;1.77;;
8421;SDS011;4248;48.196;10.924;2023-04-28T11:31:30;2.40;;;1.50;;
8421;SDS011;4248;48.196;10.924;2023-04-28T11:36:28;4.30;;;1.53;;
8421;SDS011;4248;48.196;10.924;2023-04-28T11:38:59;6.53;;;1.57;;
8421;SDS011;4248;48.196;10.924;2023-04-28T11:41:25;3.60;;;1.43;;
8421;SDS011;4248;48.196;10.924;2023-04-28T11:43:51;2.40;;;1.40;;
8421;SDS011;4248;48.196;10.924;2023-04-28T11:46:21;3.63;;;1.40;;
8421;SDS011;4248;48.196;10.924;2023-04-28T11:48:54;2.53;;;1.30;;
8421;SDS011;4248;48.196;10.924;2023-04-28T11:51:29;3.33;;;1.33;;
8421;SDS011;4248;48.196;10.924;2023-04-28T11:53:56;2.40;;;1.33;;
8421;SDS011;4248;48.196;10.924;2023-04-28T11:56:22;2.60;;;1.37;;
8421;SDS011;4248;48.196;10.924;2023-04-28T11:59:00;2.77;;;1.53;;
8421;SDS011;4248;48.196;10.924;2023-04-28T12:01:29;2.50;;;1.50;;
8421;SDS011;4248;48.196;10.924;2023-04-28T12:03:56;2.30;;;1.20;;
8421;SDS011;4248;48.196;10.924;2023-04-28T12:06:22;2.30;;;1.30;;
8421;SDS011;4248;48.196;10.924;2023-04-28T12:08:48;2.77;;;1.43;;
8421;SDS011;4248;48.196;10.924;2023-04-28T12:11:15;2.20;;;1.30;;
8421;SDS011;4248;48.196;10.924;2023-04-28T12:13:42;2.30;;;1.37;;
8421;SDS011;4248;48.196;10.924;2023-04-28T12:16:08;2.67;;;1.40;;
8421;SDS011;4248;48.196;10.924;2023-04-28T12:18:34;2.50;;;1.40;;
8421;SDS011;4248;48.196;10.924;2023-04-28T12:21:03;2.50;;;1.50;;
8421;SDS011;4248;48.196;10.924;2023-04-28T12:23:33;2.20;;;1.20;;
8421;SDS011;4248;48.196;10.924;2023-04-28T12:25:59;1.90;;;1.10;;
8421;SDS011;4248;48.196;10.924;2023-04-28T12:28:38;2.80;;;1.37;;
8421;SDS011;4248;48.196;10.924;2023-04-28T12:31:06;2.97;;;1.30;;
8421;SDS011;4248;48.196;10.924;2023-04-28T12:33:33;3.33;;;1.40;;
8421;SDS011;4248;48.196;10.924;2023-04-28T12:36:03;3.60;;;1.20;;
8421;SDS011;4248;48.196;10.924;2023-04-28T12:38:32;3.43;;;1.87;;
8421;SDS011;4248;48.196;10.924;2023-04-28T12:40:58;2.10;;;1.10;;
8421;SDS011;4248;48.196;10.924;2023-04-28T12:43:24;2.80;;;1.30;;
8421;SDS011;4248;48.196;10.924;2023-04-28T12:45:52;2.10;;;1.20;;
8421;SDS011;4248;48.196;10.924;2023-04-28T12:48:19;3.80;;;2.30;;
8421;SDS011;4248;48.196;10.924;2023-04-28T12:50:45;6.00;;;2.87;;
8421;SDS011;4248;48.196;10.924;2023-04-28T12:53:10;2.10;;;1.00;;
8421;SDS011;4248;48.196;10.924;2023-04-28T12:55:36;1.90;;;0.80;;
8421;SDS011;4248;48.196;10.924;2023-04-28T12:58:05;2.30;;;1.10;;
8421;SDS011;4248;48.196;10.924;2023-04-28T13:00:30;2.87;;;1.20;;
8421;SDS011;4248;48.196;10.924;2023-04-28T13:02:56;3.53;;;2.00;;
8421;SDS011;4248;48.196;10.924;2023-04-28T13:05:22;2.23;;;1.07;;
8421;SDS011;4248;48.196;10.924;2023-04-28T13:07:48;2.00;;;1.07;;
8421;SDS011;4248;48.196;10.924;2023-04-28T13:10:14;2.57;;;1.17;;
8421;SDS011;4248;48.196;10.924;2023-04-28T13:12:42;2.00;;;1.10;;
8421;SDS011;4248;48.196;10.924;2023-04-28T13:15:07;2.53;;;1.00;;
8421;SDS011;4248;48.196;10.924;2023-04-28T13:17:33;1.80;;;0.80;;
8421;SDS011;4248;48.196;10.924;2023-04-28T13:19:59;2.93;;;1.13;;
8421;SDS011;4248;48.196;10.924;2023-04-28T13:22:29;2.13;;;1.00;;
8421;SDS011;4248;48.196;10.924;2023-04-28T13:24:54;1.87;;;0.80;;
8421;SDS011;4248;48.196;10.924;2023-04-28T13:27:20;1.70;;;0.80;;
8421;SDS011;4248;48.196;10.924;2023-04-28T13:29:46;1.93;;;0.97;;
8421;SDS011;4248;48.196;10.924;2023-04-28T13:32:11;2.00;;;1.00;;
8421;SDS011;4248;48.196;10.924;2023-04-28T13:34:37;2.07;;;1.00;;
8421;SDS011;4248;48.196;10.924;2023-04-28T13:37:03;1.80;;;0.80;;
8421;SDS011;4248;48.196;10.924;2023-04-28T13:39:28;4.70;;;1.30;;
8421;SDS011;4248;48.196;10.924;2023-04-28T13:41:54;2.43;;;1.00;;
8421;SDS011;4248;48.196;10.924;2023-04-28T13:44:19;2.20;;;0.90;;
8421;SDS011;4248;48.196;10.924;2023-04-28T13:46:45;3.27;;;1.10;;
8421;SDS011;4248;48.196;10.924;2023-04-28T13:49:11;3.03;;;1.13;;
8421;SDS011;4248;48.196;10.924;2023-04-28T13:51:37;2.63;;;0.90;;
8421;SDS011;4248;48.196;10.924;2023-04-28T13:54:03;2.53;;;1.13;;
8421;SDS011;4248;48.196;10.924;2023-04-28T13:56:32;4.27;;;1.03;;
8421;SDS011;4248;48.196;10.924;2023-04-28T13:58:57;3.60;;;1.10;;
8421;SDS011;4248;48.196;10.924;2023-04-28T14:01:23;2.83;;;1.10;;
8421;SDS011;4248;48.196;10.924;2023-04-28T14:03:49;3.40;;;1.20;;
8421;SDS011;4248;48.196;10.924;2023-04-28T14:06:15;2.30;;;0.93;;
8421;SDS011;4248;48.196;10.924;2023-04-28T14:08:40;2.50;;;1.13;;
8421;SDS011;4248;48.196;10.924;2023-04-28T14:11:06;2.70;;;1.00;;
8421;SDS011;4248;48.196;10.924;2023-04-28T14:13:32;2.00;;;1.00;;
8421;SDS011;4248;48.196;10.924;2023-04-28T14:15:57;2.67;;;1.23;;
8421;SDS011;4248;48.196;10.924;2023-04-28T14:18:23;1.97;;;1.00;;
8421;SDS011;4248;48.196;10.924;2023-04-28T14:20:52;2.00;;;1.00;;
8421;SDS011;4248;48.196;10.924;2023-04-28T14:23:18;2.50;;;1.30;;
8421;SDS011;4248;48.196;10.924;2023-04-28T14:25:44;2.30;;;1.30;;
8421;SDS011;4248;48.196;10.924;2023-04-28T14:28:10;2.10;;;1.20;;
8421;SDS011;4248;48.196;10.924;2023-04-28T14:30:36;3.93;;;2.30;;
8421;SDS011;4248;48.196;10.924;2023-04-28T14:33:01;3.70;;;1.93;;
8421;SDS011;4248;48.196;10.924;2023-04-28T14:35:27;2.27;;;1.27;;
8421;SDS011;4248;48.196;10.924;2023-04-28T14:37:55;3.40;;;2.10;;
8421;SDS011;4248;48.196;10.924;2023-04-28T14:40:21;2.30;;;1.23;;
8421;SDS011;4248;48.196;10.924;2023-04-28T14:42:47;2.77;;;1.73;;
8421;SDS011;4248;48.196;10.924;2023-04-28T14:45:13;7.27;;;1.60;;
8421;SDS011;4248;48.196;10.924;2023-04-28T14:47:39;2.17;;;1.30;;
8421;SDS011;4248;48.196;10.924;2023-04-28T14:50:05;3.13;;;2.00;;
8421;SDS011;4248;48.196;10.924;2023-04-28T14:52:32;2.63;;;1.47;;
8421;SDS011;4248;48.196;10.924;2023-04-28T14:54:57;4.30;;;1.43;;
8421;SDS011;4248;48.196;10.924;2023-04-28T14:57:24;3.53;;;1.90;;
8421;SDS011;4248;48.196;10.924;2023-04-28T14:59:50;3.50;;;1.93;;
8421;SDS011;4248;48.196;10.924;2023-04-28T15:02:17;2.60;;;1.47;;
8421;SDS011;4248;48.196;10.924;2023-04-28T15:04:44;2.67;;;1.57;;
8421;SDS011;4248;48.196;10.924;2023-04-28T15:07:10;3.80;;;1.53;;
8421;SDS011;4248;48.196;10.924;2023-04-28T15:09:36;2.87;;;1.63;;
8421;SDS011;4248;48.196;10.924;2023-04-28T15:12:02;2.63;;;1.67;;
8421;SDS011;4248;48.196;10.924;2023-04-28T15:14:28;3.23;;;1.73;;
8421;SDS011;4248;48.196;10.924;2023-04-28T15:16:54;3.70;;;2.23;;
8421;SDS011;4248;48.196;10.924;2023-04-28T15:19:20;4.00;;;1.80;;
8421;SDS011;4248;48.196;10.924;2023-04-28T15:21:46;2.27;;;1.40;;
8421;SDS011;4248;48.196;10.924;2023-04-28T15:24:13;3.10;;;1.33;;
8421;SDS011;4248;48.196;10.924;2023-04-28T15:26:39;3.07;;;1.93;;
8421;SDS011;4248;48.196;10.924;2023-04-28T15:29:05;12.90;;;8.13;;